sensor_id;sensor_type;location;lat;lon;timestamp;pressure;altitude;pressure_sealevel;temperature;humidity
69173;BME280;56280;49.662;8.408;2024-01-15T00:01:35;99773.19;;;-1.25;100.00
69173;BME280;56280;49.662;8.408;2024-01-15T00:04:00;99757.59;;;-1.26;100.00
69173;BME280;56280;49.662;8.408;2024-01-15T00:06:26;99753.66;;;-1.16;100.00
69173;BME280;56280;49.662;8.408;2024-01-15T00:08:53;99743.50;;;-1.41;100.00
69173;BME280;56280;49.662;8.408;2024-01-15T00:11:18;99757.69;;;-1.49;100.00
69173;BME280;56280;49.662;8.408;2024-01-15T00:13:44;99753.66;;;-1.35;100.00
69173;BME280;56280;49.662;8.408;2024-01-15T00:16:09;99734.22;;;-1.28;100.00
69173;BME280;56280;49.662;8.408;2024-01-15T00:18:35;99747.34;;;-1.11;100.00
69173;BME280;56280;49.662;8.408;2024-01-15T00:21:00;99751.22;;;-1.00;100.00
69173;BME280;56280;49.662;8.408;2024-01-15T00:23:26;99742.28;;;-1.14;100.00
69173;BME280;56280;49.662;8.408;2024-01-15T00:25:51;99747.69;;;-1.18;100.00
69173;BME280;56280;49.662;8.408;2024-01-15T00:28:16;99738.59;;;-1.29;100.00
69173;BME280;56280;49.662;8.408;2024-01-15T00:30:42;99725.72;;;-1.13;100.00
69173;BME280;56280;49.662;8.408;2024-01-15T00:33:07;99739.88;;;-0.99;100.00
69173;BME280;56280;49.662;8.408;2024-01-15T00:35:32;99746.16;;;-1.03;100.00
69173;BME280;56280;49.662;8.408;2024-01-15T00:37:58;99736.38;;;-0.98;100.00
69173;BME280;56280;49.662;8.408;2024-01-15T00:40:23;99721.44;;;-0.95;100.00
69173;BME280;56280;49.662;8.408;2024-01-15T00:42:50;99705.50;;;-1.07;100.00
69173;BME280;56280;49.662;8.408;2024-01-15T00:45:15;99721.41;;;-1.14;100.00
69173;BME280;56280;49.662;8.408;2024-01-15T00:47:41;99733.25;;;-1.06;100.00
69173;BME280;56280;49.662;8.408;2024-01-15T00:50:06;99690.50;;;-1.42;100.00
69173;BME280;56280;49.662;8.408;2024-01-15T00:52:31;99709.56;;;-1.40;100.00
69173;BME280;56280;49.662;8.408;2024-01-15T00:54:57;99708.03;;;-1.25;100.00
69173;BME280;56280;49.662;8.408;2024-01-15T00:57:22;99717.97;;;-1.14;100.00
69173;BME280;56280;49.662;8.408;2024-01-15T00:59:47;99684.13;;;-1.35;100.00
69173;BME280;56280;49.662;8.408;2024-01-15T01:02:13;99716.75;;;-1.07;100.00
69173;BME280;56280;49.662;8.408;2024-01-15T01:04:38;99701.13;;;-1.07;100.00
69173;BME280;56280;49.662;8.408;2024-01-15T01:07:04;99708.44;;;-1.15;100.00
69173;BME280;56280;49.662;8.408;2024-01-15T01:09:29;99720.06;;;-1.03;100.00
69173;BME280;56280;49.662;8.408;2024-01-15T01:11:56;99719.22;;;-1.04;100.00
69173;BME280;56280;49.662;8.408;2024-01-15T01:14:21;99682.66;;;-1.21;100.00
69173;BME280;56280;49.662;8.408;2024-01-15T01:16:46;99711.41;;;-1.04;100.00
69173;BME280;56280;49.662;8.408;2024-01-15T01:19:12;99713.41;;;-0.90;100.00
69173;BME280;56280;49.662;8.408;2024-01-15T01:21:37;99694.09;;;-1.24;100.00
69173;BME280;56280;49.662;8.408;2024-01-15T01:24:02;99712.72;;;-1.33;100.00
69173;BME280;56280;49.662;8.408;2024-01-15T01:26:28;99695.03;;;-1.45;100.00
69173;BME280;56280;49.662;8.408;2024-01-15T01:28:53;99696.09;;;-1.50;100.00
69173;BME280;56280;49.662;8.408;2024-01-15T01:31:18;99695.47;;;-1.36;100.00
69173;BME280;56280;49.662;8.408;2024-01-15T01:33:43;99694.66;;;-0.98;100.00
69173;BME280;56280;49.662;8.408;2024-01-15T01:36:09;99710.13;;;-0.95;100.00
69173;BME280;56280;49.662;8.408;2024-01-15T01:38:35;99675.63;;;-1.38;100.00
69173;BME280;56280;49.662;8.408;2024-01-15T01:41:00;99672.13;;;-1.39;100.00
69173;BME280;56280;49.662;8.408;2024-01-15T01:43:26;99681.09;;;-1.44;100.00
69173;BME280;56280;49.662;8.408;2024-01-15T01:45:51;99661.50;;;-1.34;100.00
69173;BME280;56280;49.662;8.408;2024-01-15T01:48:16;99702.09;;;-1.29;100.00
69173;BME280;56280;49.662;8.408;2024-01-15T01:50:42;99690.94;;;-1.32;100.00
69173;BME280;56280;49.662;8.408;2024-01-15T01:53:08;99673.50;;;-1.30;100.00
69173;BME280;56280;49.662;8.408;2024-01-15T01:55:35;99675.97;;;-1.27;100.00
69173;BME280;56280;49.662;8.408;2024-01-15T01:58:01;99703.16;;;-1.14;100.00
69173;BME280;56280;49.662;8.408;2024-01-15T02:00:27;99692.31;;;-1.23;100.00
69173;BME280;56280;49.662;8.408;2024-01-15T02:02:52;99690.53;;;-1.23;100.00
69173;BME280;56280;49.662;8.408;2024-01-15T02:05:19;99703.66;;;-1.05;100.00
69173;BME280;56280;49.662;8.408;2024-01-15T02:07:45;99687.88;;;-1.02;100.00
69173;BME280;56280;49.662;8.408;2024-01-15T02:10:10;99709.16;;;-0.74;100.00
69173;BME280;56280;49.662;8.408;2024-01-15T02:12:36;99705.81;;;-0.58;100.00
69173;BME280;56280;49.662;8.408;2024-01-15T02:15:01;99692.22;;;-0.65;100.00
69173;BME280;56280;49.662;8.408;2024-01-15T02:17:27;99680.94;;;-0.65;100.00
69173;BME280;56280;49.662;8.408;2024-01-15T02:19:52;99695.28;;;-0.93;100.00
69173;BME280;56280;49.662;8.408;2024-01-15T02:22:17;99704.50;;;-0.67;100.00
69173;BME280;56280;49.662;8.408;2024-01-15T02:24:43;99707.03;;;-0.65;100.00
69173;BME280;56280;49.662;8.408;2024-01-15T02:27:08;99723.97;;;-0.74;100.00
69173;BME280;56280;49.662;8.408;2024-01-15T02:29:33;99691.41;;;-0.84;100.00
69173;BME280;56280;49.662;8.408;2024-01-15T02:31:59;99708.53;;;-0.79;100.00
69173;BME280;56280;49.662;8.408;2024-01-15T02:34:24;99708.94;;;-0.50;100.00
69173;BME280;56280;49.662;8.408;2024-01-15T02:36:49;99693.09;;;-0.64;100.00
69173;BME280;56280;49.662;8.408;2024-01-15T02:39:14;99674.16;;;-0.69;100.00
69173;BME280;56280;49.662;8.408;2024-01-15T02:41:40;99685.19;;;-0.63;100.00
69173;BME280;56280;49.662;8.408;2024-01-15T02:44:05;99694.47;;;-0.57;100.00
69173;BME280;56280;49.662;8.408;2024-01-15T02:46:30;99675.63;;;-0.45;100.00
69173;BME280;56280;49.662;8.408;2024-01-15T02:48:56;99644.91;;;-0.57;100.00
69173;BME280;56280;49.662;8.408;2024-01-15T02:51:21;99666.38;;;-0.52;100.00
69173;BME280;56280;49.662;8.408;2024-01-15T02:53:46;99690.06;;;-0.38;100.00
69173;BME280;56280;49.662;8.408;2024-01-15T02:56:12;99674.56;;;-0.23;100.00
69173;BME280;56280;49.662;8.408;2024-01-15T02:58:37;99683.31;;;-0.07;100.00
69173;BME280;56280;49.662;8.408;2024-01-15T03:01:02;99683.22;;;-0.23;100.00
69173;BME280;56280;49.662;8.408;2024-01-15T03:03:28;99683.16;;;-0.21;100.00
69173;BME280;56280;49.662;8.408;2024-01-15T03:05:53;99685.53;;;-0.34;100.00
69173;BME280;56280;49.662;8.408;2024-01-15T03:08:18;99672.88;;;-0.42;100.00
69173;BME280;56280;49.662;8.408;2024-01-15T03:10:43;99690.69;;;-0.69;100.00
69173;BME280;56280;49.662;8.408;2024-01-15T03:13:09;99678.03;;;-0.59;100.00
69173;BME280;56280;49.662;8.408;2024-01-15T03:15:34;99678.63;;;-0.71;100.00
69173;BME280;56280;49.662;8.408;2024-01-15T03:17:59;99652.59;;;-0.73;100.00
69173;BME280;56280;49.662;8.408;2024-01-15T03:20:24;99677.94;;;-0.75;100.00
69173;BME280;56280;49.662;8.408;2024-01-15T03:22:50;99664.78;;;-0.54;100.00
69173;BME280;56280;49.662;8.408;2024-01-15T03:25:15;99664.00;;;-0.93;100.00
69173;BME280;56280;49.662;8.408;2024-01-15T03:27:40;99683.78;;;-0.89;100.00
69173;BME280;56280;49.662;8.408;2024-01-15T03:30:06;99661.72;;;-0.82;100.00
69173;BME280;56280;49.662;8.408;2024-01-15T03:32:32;99660.38;;;-0.71;100.00
69173;BME280;56280;49.662;8.408;2024-01-15T03:34:57;99672.56;;;-0.72;100.00
69173;BME280;56280;49.662;8.408;2024-01-15T03:37:22;99654.41;;;-0.93;100.00
69173;BME280;56280;49.662;8.408;2024-01-15T03:39:47;99660.31;;;-0.89;100.00
69173;BME280;56280;49.662;8.408;2024-01-15T03:42:13;99654.34;;;-0.91;100.00
69173;BME280;56280;49.662;8.408;2024-01-15T03:44:39;99680.47;;;-0.74;100.00
69173;BME280;56280;49.662;8.408;2024-01-15T03:47:04;99665.22;;;-0.64;100.00
69173;BME280;56280;49.662;8.408;2024-01-15T03:49:30;99670.91;;;-0.56;100.00
69173;BME280;56280;49.662;8.408;2024-01-15T03:51:55;99665.03;;;-0.78;100.00
69173;BME280;56280;49.662;8.408;2024-01-15T03:54:20;99656.72;;;-0.86;100.00
69173;BME280;56280;49.662;8.408;2024-01-15T03:56:45;99644.81;;;-0.92;100.00
69173;BME280;56280;49.662;8.408;2024-01-15T03:59:11;99634.09;;;-0.86;100.00
69173;BME280;56280;49.662;8.408;2024-01-15T04:01:36;99623.44;;;-0.81;100.00
69173;BME280;56280;49.662;8.408;2024-01-15T04:04:01;99626.66;;;-0.76;100.00
69173;BME280;56280;49.662;8.408;2024-01-15T04:06:26;99617.13;;;-0.95;100.00
69173;BME280;56280;49.662;8.408;2024-01-15T04:08:52;99629.00;;;-0.70;100.00
69173;BME280;56280;49.662;8.408;2024-01-15T04:11:17;99613.81;;;-0.62;100.00
69173;BME280;56280;49.662;8.408;2024-01-15T04:13:42;99591.38;;;-0.83;100.00
69173;BME280;56280;49.662;8.408;2024-01-15T04:16:07;99606.78;;;-0.96;100.00
69173;BME280;56280;49.662;8.408;2024-01-15T04:18:33;99626.47;;;-0.90;100.00
69173;BME280;56280;49.662;8.408;2024-01-15T04:20:58;99597.13;;;-1.13;100.00
69173;BME280;56280;49.662;8.408;2024-01-15T04:23:23;99591.91;;;-0.94;100.00
69173;BME280;56280;49.662;8.408;2024-01-15T04:25:48;99601.34;;;-0.92;100.00
69173;BME280;56280;49.662;8.408;2024-01-15T04:28:14;99599.75;;;-0.77;100.00
69173;BME280;56280;49.662;8.408;2024-01-15T04:30:39;99601.03;;;-0.85;100.00
69173;BME280;56280;49.662;8.408;2024-01-15T04:33:04;99595.75;;;-0.84;100.00
69173;BME280;56280;49.662;8.408;2024-01-15T04:35:30;99596.34;;;-0.96;100.00
69173;BME280;56280;49.662;8.408;2024-01-15T04:37:55;99573.63;;;-1.31;100.00
69173;BME280;56280;49.662;8.408;2024-01-15T04:40:21;99589.25;;;-1.12;100.00
69173;BME280;56280;49.662;8.408;2024-01-15T04:42:46;99593.13;;;-1.01;100.00
69173;BME280;56280;49.662;8.408;2024-01-15T04:45:11;99590.19;;;-0.95;100.00
69173;BME280;56280;49.662;8.408;2024-01-15T04:47:37;99601.75;;;-0.82;100.00
69173;BME280;56280;49.662;8.408;2024-01-15T04:50:04;99585.50;;;-1.06;100.00
69173;BME280;56280;49.662;8.408;2024-01-15T04:52:29;99610.34;;;-0.80;100.00
69173;BME280;56280;49.662;8.408;2024-01-15T04:54:54;99600.59;;;-0.76;100.00
69173;BME280;56280;49.662;8.408;2024-01-15T04:57:20;99585.63;;;-0.90;100.00
69173;BME280;56280;49.662;8.408;2024-01-15T04:59:45;99588.09;;;-0.87;100.00
69173;BME280;56280;49.662;8.408;2024-01-15T05:02:10;99594.72;;;-0.62;100.00
69173;BME280;56280;49.662;8.408;2024-01-15T05:04:36;99597.72;;;-0.52;100.00
69173;BME280;56280;49.662;8.408;2024-01-15T05:07:01;99599.16;;;-0.64;100.00
69173;BME280;56280;49.662;8.408;2024-01-15T05:09:28;99588.66;;;-0.45;100.00
69173;BME280;56280;49.662;8.408;2024-01-15T05:11:56;99599.16;;;-0.29;100.00
69173;BME280;56280;49.662;8.408;2024-01-15T05:14:22;99605.16;;;-0.45;100.00
69173;BME280;56280;49.662;8.408;2024-01-15T05:16:54;99619.59;;;-0.38;100.00
69173;BME280;56280;49.662;8.408;2024-01-15T05:19:20;99611.69;;;-0.36;100.00
69173;BME280;56280;49.662;8.408;2024-01-15T05:21:45;99596.84;;;-0.35;100.00
69173;BME280;56280;49.662;8.408;2024-01-15T05:24:11;99588.09;;;-0.52;100.00
69173;BME280;56280;49.662;8.408;2024-01-15T05:26:36;99576.91;;;-0.37;100.00
69173;BME280;56280;49.662;8.408;2024-01-15T05:29:01;99568.31;;;-0.39;100.00
69173;BME280;56280;49.662;8.408;2024-01-15T05:31:27;99590.34;;;-0.44;100.00
69173;BME280;56280;49.662;8.408;2024-01-15T05:33:52;99603.31;;;-0.43;100.00
69173;BME280;56280;49.662;8.408;2024-01-15T05:36:18;99588.19;;;-0.36;100.00
69173;BME280;56280;49.662;8.408;2024-01-15T05:38:43;99567.09;;;-0.49;100.00
69173;BME280;56280;49.662;8.408;2024-01-15T05:41:09;99580.13;;;-0.31;100.00
69173;BME280;56280;49.662;8.408;2024-01-15T05:43:34;99582.28;;;-0.40;100.00
69173;BME280;56280;49.662;8.408;2024-01-15T05:45:59;99548.66;;;-0.63;100.00
69173;BME280;56280;49.662;8.408;2024-01-15T05:48:24;99560.03;;;-0.64;100.00
69173;BME280;56280;49.662;8.408;2024-01-15T05:50:50;99566.94;;;-0.46;100.00
69173;BME280;56280;49.662;8.408;2024-01-15T05:53:15;99519.72;;;-0.76;100.00
69173;BME280;56280;49.662;8.408;2024-01-15T05:55:40;99533.94;;;-0.64;100.00
69173;BME280;56280;49.662;8.408;2024-01-15T05:58:06;99557.44;;;-0.64;100.00
69173;BME280;56280;49.662;8.408;2024-01-15T06:00:31;99547.00;;;-0.64;100.00
69173;BME280;56280;49.662;8.408;2024-01-15T06:02:58;99558.47;;;-0.86;100.00
69173;BME280;56280;49.662;8.408;2024-01-15T06:05:23;99548.34;;;-0.75;100.00
69173;BME280;56280;49.662;8.408;2024-01-15T06:07:49;99562.88;;;-0.69;100.00
69173;BME280;56280;49.662;8.408;2024-01-15T06:10:14;99550.28;;;-0.78;100.00
69173;BME280;56280;49.662;8.408;2024-01-15T06:12:39;99566.69;;;-0.59;100.00
69173;BME280;56280;49.662;8.408;2024-01-15T06:15:05;99557.59;;;-0.67;100.00
69173;BME280;56280;49.662;8.408;2024-01-15T06:17:30;99540.38;;;-0.71;100.00
69173;BME280;56280;49.662;8.408;2024-01-15T06:19:56;99553.63;;;-0.76;100.00
69173;BME280;56280;49.662;8.408;2024-01-15T06:22:22;99548.81;;;-0.49;100.00
69173;BME280;56280;49.662;8.408;2024-01-15T06:24:47;99539.47;;;-0.53;100.00
69173;BME280;56280;49.662;8.408;2024-01-15T06:27:12;99543.16;;;-0.57;100.00
69173;BME280;56280;49.662;8.408;2024-01-15T06:29:38;99544.19;;;-0.26;100.00
69173;BME280;56280;49.662;8.408;2024-01-15T06:32:04;99547.59;;;-0.42;100.00
69173;BME280;56280;49.662;8.408;2024-01-15T06:34:29;99554.63;;;-0.26;100.00
69173;BME280;56280;49.662;8.408;2024-01-15T06:36:54;99538.50;;;-0.17;100.00
69173;BME280;56280;49.662;8.408;2024-01-15T06:39:20;99547.38;;;-0.04;100.00
69173;BME280;56280;49.662;8.408;2024-01-15T06:41:45;99555.72;;;-0.13;100.00
69173;BME280;56280;49.662;8.408;2024-01-15T06:44:11;99569.38;;;-0.08;100.00
69173;BME280;56280;49.662;8.408;2024-01-15T06:46:36;99551.03;;;-0.24;100.00
69173;BME280;56280;49.662;8.408;2024-01-15T06:49:01;99557.06;;;-0.06;100.00
69173;BME280;56280;49.662;8.408;2024-01-15T06:51:27;99561.00;;;-0.14;100.00
69173;BME280;56280;49.662;8.408;2024-01-15T06:53:52;99561.66;;;0.07;100.00
69173;BME280;56280;49.662;8.408;2024-01-15T06:56:17;99553.47;;;0.13;100.00
69173;BME280;56280;49.662;8.408;2024-01-15T06:58:42;99549.38;;;0.25;100.00
69173;BME280;56280;49.662;8.408;2024-01-15T07:01:07;99560.31;;;0.15;100.00
69173;BME280;56280;49.662;8.408;2024-01-15T07:03:33;99557.28;;;0.07;100.00
69173;BME280;56280;49.662;8.408;2024-01-15T07:05:58;99551.69;;;0.31;100.00
69173;BME280;56280;49.662;8.408;2024-01-15T07:08:24;99526.31;;;0.33;100.00
69173;BME280;56280;49.662;8.408;2024-01-15T07:10:49;99564.94;;;0.44;100.00
69173;BME280;56280;49.662;8.408;2024-01-15T07:13:14;99550.34;;;0.56;100.00
69173;BME280;56280;49.662;8.408;2024-01-15T07:15:40;99510.53;;;0.34;100.00
69173;BME280;56280;49.662;8.408;2024-01-15T07:18:05;99559.09;;;0.70;100.00
69173;BME280;56280;49.662;8.408;2024-01-15T07:20:30;99563.50;;;0.70;100.00
69173;BME280;56280;49.662;8.408;2024-01-15T07:22:56;99567.72;;;0.72;100.00
69173;BME280;56280;49.662;8.408;2024-01-15T07:25:21;99541.34;;;0.61;100.00
69173;BME280;56280;49.662;8.408;2024-01-15T07:27:47;99561.38;;;0.77;100.00
69173;BME280;56280;49.662;8.408;2024-01-15T07:30:12;99567.63;;;0.74;100.00
69173;BME280;56280;49.662;8.408;2024-01-15T07:32:38;99551.88;;;0.60;100.00
69173;BME280;56280;49.662;8.408;2024-01-15T07:35:04;99566.28;;;0.83;100.00
69173;BME280;56280;49.662;8.408;2024-01-15T07:37:30;99557.22;;;1.04;100.00
69173;BME280;56280;49.662;8.408;2024-01-15T07:39:55;99544.69;;;0.95;100.00
69173;BME280;56280;49.662;8.408;2024-01-15T07:42:20;99568.63;;;1.03;100.00
69173;BME280;56280;49.662;8.408;2024-01-15T07:44:46;99539.31;;;0.82;100.00
69173;BME280;56280;49.662;8.408;2024-01-15T07:47:12;99565.06;;;1.04;100.00
69173;BME280;56280;49.662;8.408;2024-01-15T07:49:37;99540.72;;;0.88;100.00
69173;BME280;56280;49.662;8.408;2024-01-15T07:52:02;99544.78;;;0.94;100.00
69173;BME280;56280;49.662;8.408;2024-01-15T07:54:29;99530.69;;;0.80;100.00
69173;BME280;56280;49.662;8.408;2024-01-15T07:57:00;99562.59;;;1.17;100.00
69173;BME280;56280;49.662;8.408;2024-01-15T07:59:26;99556.19;;;1.23;100.00
69173;BME280;56280;49.662;8.408;2024-01-15T08:01:52;99558.91;;;1.21;100.00
69173;BME280;56280;49.662;8.408;2024-01-15T08:04:18;99564.44;;;1.31;100.00
69173;BME280;56280;49.662;8.408;2024-01-15T08:06:44;99561.88;;;1.45;100.00
69173;BME280;56280;49.662;8.408;2024-01-15T08:09:10;99561.38;;;1.39;100.00
69173;BME280;56280;49.662;8.408;2024-01-15T08:11:35;99540.94;;;1.45;100.00
69173;BME280;56280;49.662;8.408;2024-01-15T08:14:01;99553.50;;;1.55;100.00
69173;BME280;56280;49.662;8.408;2024-01-15T08:16:26;99531.25;;;1.32;100.00
69173;BME280;56280;49.662;8.408;2024-01-15T08:18:52;99528.47;;;1.35;100.00
69173;BME280;56280;49.662;8.408;2024-01-15T08:21:18;99521.22;;;1.24;100.00
69173;BME280;56280;49.662;8.408;2024-01-15T08:23:44;99528.34;;;1.22;100.00
69173;BME280;56280;49.662;8.408;2024-01-15T08:26:10;99529.91;;;0.94;100.00
69173;BME280;56280;49.662;8.408;2024-01-15T08:28:35;99531.31;;;1.00;100.00
69173;BME280;56280;49.662;8.408;2024-01-15T08:31:00;99522.16;;;0.93;100.00
69173;BME280;56280;49.662;8.408;2024-01-15T08:33:26;99536.63;;;1.14;100.00
69173;BME280;56280;49.662;8.408;2024-01-15T08:35:51;99526.69;;;1.05;100.00
69173;BME280;56280;49.662;8.408;2024-01-15T08:38:16;99492.97;;;0.84;100.00
69173;BME280;56280;49.662;8.408;2024-01-15T08:40:41;99451.19;;;0.52;100.00
69173;BME280;56280;49.662;8.408;2024-01-15T08:43:07;99515.47;;;1.03;100.00
69173;BME280;56280;49.662;8.408;2024-01-15T08:45:32;99524.34;;;1.00;100.00
69173;BME280;56280;49.662;8.408;2024-01-15T08:47:58;99528.91;;;1.27;100.00
69173;BME280;56280;49.662;8.408;2024-01-15T08:50:23;99516.63;;;1.13;100.00
69173;BME280;56280;49.662;8.408;2024-01-15T08:52:49;99525.44;;;0.96;100.00
69173;BME280;56280;49.662;8.408;2024-01-15T08:55:14;99514.28;;;1.08;100.00
69173;BME280;56280;49.662;8.408;2024-01-15T08:57:39;99537.47;;;1.15;100.00
69173;BME280;56280;49.662;8.408;2024-01-15T09:00:05;99525.00;;;1.04;100.00
69173;BME280;56280;49.662;8.408;2024-01-15T09:02:33;99505.53;;;1.24;100.00
69173;BME280;56280;49.662;8.408;2024-01-15T09:04:59;99506.38;;;1.24;100.00
69173;BME280;56280;49.662;8.408;2024-01-15T09:07:24;99508.47;;;1.48;100.00
69173;BME280;56280;49.662;8.408;2024-01-15T09:09:51;99490.47;;;1.43;100.00
69173;BME280;56280;49.662;8.408;2024-01-15T09:12:16;99489.81;;;1.24;100.00
69173;BME280;56280;49.662;8.408;2024-01-15T09:14:43;99506.75;;;1.63;100.00
69173;BME280;56280;49.662;8.408;2024-01-15T09:17:09;99504.75;;;1.52;100.00
69173;BME280;56280;49.662;8.408;2024-01-15T09:19:34;99502.34;;;1.19;100.00
69173;BME280;56280;49.662;8.408;2024-01-15T09:21:59;99502.13;;;1.07;100.00
69173;BME280;56280;49.662;8.408;2024-01-15T09:24:25;99519.69;;;1.05;100.00
69173;BME280;56280;49.662;8.408;2024-01-15T09:26:50;99495.44;;;0.87;100.00
69173;BME280;56280;49.662;8.408;2024-01-15T09:29:15;99528.38;;;0.90;100.00
69173;BME280;56280;49.662;8.408;2024-01-15T09:31:41;99530.91;;;1.07;100.00
69173;BME280;56280;49.662;8.408;2024-01-15T09:34:06;99508.38;;;1.05;100.00
69173;BME280;56280;49.662;8.408;2024-01-15T09:36:32;99529.28;;;1.35;100.00
69173;BME280;56280;49.662;8.408;2024-01-15T09:38:57;99531.16;;;1.33;100.00
69173;BME280;56280;49.662;8.408;2024-01-15T09:41:23;99516.63;;;1.43;100.00
69173;BME280;56280;49.662;8.408;2024-01-15T09:43:48;99533.38;;;1.55;100.00
69173;BME280;56280;49.662;8.408;2024-01-15T09:46:14;99523.59;;;1.73;100.00
69173;BME280;56280;49.662;8.408;2024-01-15T09:48:40;99515.53;;;1.62;100.00
69173;BME280;56280;49.662;8.408;2024-01-15T09:51:06;99507.88;;;1.73;100.00
69173;BME280;56280;49.662;8.408;2024-01-15T09:53:33;99522.47;;;1.63;100.00
69173;BME280;56280;49.662;8.408;2024-01-15T09:55:59;99532.28;;;1.74;100.00
69173;BME280;56280;49.662;8.408;2024-01-15T09:58:25;99482.50;;;1.31;100.00
69173;BME280;56280;49.662;8.408;2024-01-15T10:00:51;99514.78;;;1.60;100.00
69173;BME280;56280;49.662;8.408;2024-01-15T10:03:17;99527.81;;;1.76;100.00
69173;BME280;56280;49.662;8.408;2024-01-15T10:05:43;99528.66;;;1.91;100.00
69173;BME280;56280;49.662;8.408;2024-01-15T10:08:09;99524.75;;;1.84;100.00
69173;BME280;56280;49.662;8.408;2024-01-15T10:10:36;99517.06;;;1.80;100.00
69173;BME280;56280;49.662;8.408;2024-01-15T10:13:01;99494.88;;;1.72;100.00
69173;BME280;56280;49.662;8.408;2024-01-15T10:15:26;99504.75;;;1.52;100.00
69173;BME280;56280;49.662;8.408;2024-01-15T10:17:52;99521.59;;;1.62;100.00
69173;BME280;56280;49.662;8.408;2024-01-15T10:20:17;99524.22;;;1.62;100.00
69173;BME280;56280;49.662;8.408;2024-01-15T10:22:44;99521.88;;;1.72;100.00
69173;BME280;56280;49.662;8.408;2024-01-15T10:25:12;99500.34;;;1.53;100.00
69173;BME280;56280;49.662;8.408;2024-01-15T10:27:38;99500.19;;;1.56;100.00
69173;BME280;56280;49.662;8.408;2024-01-15T10:30:03;99493.00;;;1.74;100.00
69173;BME280;56280;49.662;8.408;2024-01-15T10:32:29;99473.16;;;1.55;100.00
69173;BME280;56280;49.662;8.408;2024-01-15T10:34:54;99474.88;;;1.71;100.00
69173;BME280;56280;49.662;8.408;2024-01-15T10:37:19;99473.91;;;1.57;100.00
69173;BME280;56280;49.662;8.408;2024-01-15T10:39:46;99488.59;;;1.60;100.00
69173;BME280;56280;49.662;8.408;2024-01-15T10:42:12;99481.13;;;1.54;100.00
69173;BME280;56280;49.662;8.408;2024-01-15T10:44:37;99489.53;;;1.59;100.00
69173;BME280;56280;49.662;8.408;2024-01-15T10:47:02;99432.22;;;1.54;100.00
69173;BME280;56280;49.662;8.408;2024-01-15T10:49:29;99478.88;;;1.76;100.00
69173;BME280;56280;49.662;8.408;2024-01-15T10:51:56;99469.75;;;1.84;100.00
69173;BME280;56280;49.662;8.408;2024-01-15T10:54:22;99459.91;;;1.58;100.00
69173;BME280;56280;49.662;8.408;2024-01-15T10:56:49;99466.72;;;1.75;100.00
69173;BME280;56280;49.662;8.408;2024-01-15T10:59:15;99457.91;;;1.48;100.00
69173;BME280;56280;49.662;8.408;2024-01-15T11:01:42;99482.63;;;1.58;100.00
69173;BME280;56280;49.662;8.408;2024-01-15T11:04:07;99450.81;;;1.64;100.00
69173;BME280;56280;49.662;8.408;2024-01-15T11:06:44;99465.06;;;1.89;100.00
69173;BME280;56280;49.662;8.408;2024-01-15T11:09:10;99435.41;;;1.45;100.00
69173;BME280;56280;49.662;8.408;2024-01-15T11:11:36;99435.88;;;1.52;100.00
69173;BME280;56280;49.662;8.408;2024-01-15T11:14:05;99448.97;;;1.52;100.00
69173;BME280;56280;49.662;8.408;2024-01-15T11:16:53;99463.34;;;1.73;100.00
69173;BME280;56280;49.662;8.408;2024-01-15T11:19:21;99467.31;;;1.95;100.00
69173;BME280;56280;49.662;8.408;2024-01-15T11:21:46;99478.78;;;2.07;100.00
69173;BME280;56280;49.662;8.408;2024-01-15T11:24:35;99455.28;;;2.19;100.00
69173;BME280;56280;49.662;8.408;2024-01-15T11:27:01;99472.81;;;2.46;100.00
69173;BME280;56280;49.662;8.408;2024-01-15T11:31:57;99470.34;;;2.30;100.00
69173;BME280;56280;49.662;8.408;2024-01-15T11:34:50;99485.00;;;2.33;100.00
69173;BME280;56280;49.662;8.408;2024-01-15T11:37:16;99471.53;;;2.39;100.00
69173;BME280;56280;49.662;8.408;2024-01-15T11:39:42;99468.31;;;2.48;100.00
69173;BME280;56280;49.662;8.408;2024-01-15T11:42:10;99479.09;;;2.44;100.00
69173;BME280;56280;49.662;8.408;2024-01-15T11:44:37;99470.25;;;2.32;100.00
69173;BME280;56280;49.662;8.408;2024-01-15T11:47:04;99365.06;;;1.82;100.00
69173;BME280;56280;49.662;8.408;2024-01-15T11:52:37;99446.00;;;2.55;100.00
69173;BME280;56280;49.662;8.408;2024-01-15T11:55:11;99448.44;;;2.59;100.00
69173;BME280;56280;49.662;8.408;2024-01-15T11:57:50;99457.22;;;2.45;100.00
69173;BME280;56280;49.662;8.408;2024-01-15T12:00:16;99434.41;;;2.60;100.00
69173;BME280;56280;49.662;8.408;2024-01-15T12:02:45;99435.47;;;2.43;100.00
69173;BME280;56280;49.662;8.408;2024-01-15T12:05:13;99454.53;;;2.32;100.00
69173;BME280;56280;49.662;8.408;2024-01-15T12:07:42;99447.84;;;2.41;100.00
69173;BME280;56280;49.662;8.408;2024-01-15T12:10:12;99436.00;;;2.48;100.00
69173;BME280;56280;49.662;8.408;2024-01-15T12:12:57;99437.06;;;2.72;100.00
69173;BME280;56280;49.662;8.408;2024-01-15T12:15:24;99437.66;;;2.63;100.00
69173;BME280;56280;49.662;8.408;2024-01-15T12:17:50;99430.06;;;2.59;100.00
69173;BME280;56280;49.662;8.408;2024-01-15T12:20:15;99439.97;;;2.68;100.00
69173;BME280;56280;49.662;8.408;2024-01-15T12:22:41;99419.28;;;2.36;100.00
69173;BME280;56280;49.662;8.408;2024-01-15T12:25:07;99410.03;;;2.58;100.00
69173;BME280;56280;49.662;8.408;2024-01-15T12:27:32;99396.59;;;2.49;100.00
69173;BME280;56280;49.662;8.408;2024-01-15T12:29:58;99424.69;;;2.74;100.00
69173;BME280;56280;49.662;8.408;2024-01-15T12:32:24;99381.56;;;2.66;100.00
69173;BME280;56280;49.662;8.408;2024-01-15T12:34:50;99401.56;;;2.67;100.00
69173;BME280;56280;49.662;8.408;2024-01-15T12:37:18;99389.06;;;2.58;100.00
69173;BME280;56280;49.662;8.408;2024-01-15T12:39:44;99396.69;;;2.88;100.00
69173;BME280;56280;49.662;8.408;2024-01-15T12:42:09;99400.28;;;3.00;100.00
69173;BME280;56280;49.662;8.408;2024-01-15T12:44:35;99407.00;;;3.04;100.00
69173;BME280;56280;49.662;8.408;2024-01-15T12:47:03;99397.75;;;2.85;100.00
69173;BME280;56280;49.662;8.408;2024-01-15T12:49:29;99375.66;;;2.62;100.00
69173;BME280;56280;49.662;8.408;2024-01-15T12:51:56;99385.06;;;2.92;100.00
69173;BME280;56280;49.662;8.408;2024-01-15T12:54:22;99420.25;;;3.15;100.00